createdAt,value
2019-03-28T00:00:41.802Z,102661.30
2019-03-28T00:02:43.182Z,102663.63
2019-03-28T00:04:44.688Z,102665.30
2019-03-28T00:06:46.060Z,102667.86
2019-03-28T00:08:47.457Z,102667.83
2019-03-28T00:10:48.829Z,102664.09
2019-03-28T00:12:50.189Z,102662.94
2019-03-28T00:14:51.594Z,102666.36
2019-03-28T00:16:52.962Z,102664.61
2019-03-28T00:18:57.340Z,102671.28
2019-03-28T00:20:57.666Z,102667.70
2019-03-28T00:23:01.002Z,102663.23
2019-03-28T00:25:08.688Z,102663.57
2019-03-28T00:27:10.096Z,102664.03
2019-03-28T00:29:11.469Z,102660.45
2019-03-28T00:31:12.865Z,102663.73
2019-03-28T00:33:14.239Z,102660.62
2019-03-28T00:35:15.595Z,102658.81
2019-03-28T00:37:17.005Z,102662.42
2019-03-28T00:39:18.419Z,102662.55
2019-03-28T00:41:20.211Z,102663.41
2019-03-28T00:43:21.924Z,102662.56
2019-03-28T00:45:23.296Z,102664.50
2019-03-28T00:47:24.691Z,102664.17
2019-03-28T00:49:26.100Z,102661.11
2019-03-28T00:51:27.459Z,102663.07
2019-03-28T00:53:28.820Z,102662.58
2019-03-28T00:55:30.223Z,102660.45
2019-03-28T00:57:31.583Z,102660.31
2019-03-28T00:59:32.937Z,102662.72
2019-03-28T01:01:34.367Z,102661.08
2019-03-28T01:03:36.348Z,102663.97
2019-03-28T01:05:38.002Z,102662.50
2019-03-28T01:07:39.505Z,102656.72
2019-03-28T01:09:40.897Z,102658.36
2019-03-28T01:11:42.286Z,102668.70
2019-03-28T01:13:43.660Z,102662.60
2019-03-28T01:15:45.288Z,102661.05
2019-03-28T01:17:46.818Z,102660.03
2019-03-28T01:19:48.204Z,102662.20
2019-03-28T01:21:49.645Z,102656.27
2019-03-28T01:23:51.007Z,102656.63
2019-03-28T01:25:53.192Z,102655.44
2019-03-28T01:27:54.716Z,102658.95
2019-03-28T01:29:56.115Z,102661.44
2019-03-28T01:31:57.480Z,102660.59
2019-03-28T01:33:58.872Z,102659.73
2019-03-28T01:36:00.266Z,102653.73
2019-03-28T01:38:02.052Z,102654.30
2019-03-28T01:40:05.423Z,102654.52
2019-03-28T01:42:06.814Z,102656.62
2019-03-28T01:44:08.222Z,102654.13
2019-03-28T01:46:09.596Z,102654.13
2019-03-28T01:48:10.989Z,102652.78
2019-03-28T01:50:12.449Z,102653.50
2019-03-28T01:52:14.028Z,102655.73
2019-03-28T01:54:15.390Z,102659.73
2019-03-28T01:56:17.158Z,102659.22
2019-03-28T01:58:18.544Z,102660.66
2019-03-28T02:00:19.939Z,102655.77
2019-03-28T02:02:21.409Z,102662.53
2019-03-28T02:04:22.765Z,102660.63
2019-03-28T02:06:24.210Z,102657.91
2019-03-28T02:08:25.581Z,102659.77
2019-03-28T02:10:26.935Z,102663.31
2019-03-28T02:12:28.348Z,102662.03
2019-03-28T02:14:29.697Z,102669.29
2019-03-28T02:16:31.055Z,102666.83
2019-03-28T02:18:32.441Z,102662.03
2019-03-28T02:20:33.804Z,102661.05
2019-03-28T02:22:35.479Z,102664.14
2019-03-28T02:24:36.883Z,102665.13
2019-03-28T02:26:38.228Z,102666.63
2019-03-28T02:28:39.581Z,102662.69
2019-03-28T02:30:40.979Z,102663.18
2019-03-28T02:32:42.506Z,102658.65
2019-03-28T02:34:43.868Z,102664.69
2019-03-28T02:36:45.232Z,102668.59
2019-03-28T02:38:46.695Z,102667.97
2019-03-28T02:40:48.145Z,102666.80
2019-03-28T02:42:49.509Z,102674.34
2019-03-28T02:44:50.919Z,102672.57
2019-03-28T02:46:52.296Z,102676.97
2019-03-28T02:48:53.904Z,102673.00
2019-03-28T02:50:55.736Z,102675.03
2019-03-28T02:52:57.128Z,102677.53
2019-03-28T02:54:58.534Z,102675.16
2019-03-28T02:56:59.944Z,102678.28
2019-03-28T02:59:01.314Z,102678.58
2019-03-28T03:01:02.895Z,102675.95
2019-03-28T03:03:04.364Z,102680.36
2019-03-28T03:05:06.939Z,102676.45
2019-03-28T03:07:08.331Z,102677.20
2019-03-28T03:09:09.735Z,102680.84
2019-03-28T03:11:11.554Z,102682.66
2019-03-28T03:13:12.905Z,102685.34
2019-03-28T03:15:14.920Z,102679.41
2019-03-28T03:17:16.274Z,102677.23
2019-03-28T03:19:17.655Z,102675.95
2019-03-28T03:21:19.047Z,102681.02
2019-03-28T03:23:20.507Z,102680.71
2019-03-28T03:25:22.129Z,102684.52
2019-03-28T03:27:23.489Z,102679.92
2019-03-28T03:29:24.851Z,102672.86
2019-03-28T03:31:26.258Z,102676.51
2019-03-28T03:33:27.638Z,102674.97
2019-03-28T03:35:28.987Z,102683.56
2019-03-28T03:37:30.382Z,102685.86
2019-03-28T03:39:31.805Z,102686.19
2019-03-28T03:41:33.176Z,102688.81
2019-03-28T03:43:34.551Z,102688.84
2019-03-28T03:45:36.007Z,102686.19
2019-03-28T03:47:37.410Z,102687.99
2019-03-28T03:49:38.828Z,102686.19
2019-03-28T03:51:40.748Z,102684.19
2019-03-28T03:53:42.442Z,102684.16
2019-03-28T03:55:43.830Z,102689.97
2019-03-28T03:57:45.185Z,102685.86
2019-03-28T03:59:46.547Z,102688.29
2019-03-28T04:01:47.891Z,102686.46
2019-03-28T04:03:49.243Z,102691.41
2019-03-28T04:05:50.624Z,102691.30
2019-03-28T04:07:51.969Z,102687.80
2019-03-28T04:09:53.511Z,102688.65
2019-03-28T04:11:54.935Z,102690.13
2019-03-28T04:13:56.312Z,102692.94
2019-03-28T04:15:57.657Z,102693.11
2019-03-28T04:17:58.989Z,102695.38
2019-03-28T04:20:00.544Z,102699.16
2019-03-28T04:22:01.979Z,102701.09
2019-03-28T04:24:03.334Z,102701.25
2019-03-28T04:26:05.865Z,102704.41
2019-03-28T04:28:07.613Z,102703.88
2019-03-28T04:30:09.709Z,102706.18
2019-03-28T04:32:11.087Z,102702.77
2019-03-28T04:34:12.439Z,102707.23
2019-03-28T04:36:14.781Z,102699.84
2019-03-28T04:38:16.169Z,102707.72
2019-03-28T04:40:17.517Z,102705.91
2019-03-28T04:42:18.896Z,102709.52
2019-03-28T04:44:20.395Z,102708.05
2019-03-28T04:46:22.576Z,102708.05
2019-03-28T04:48:23.982Z,102713.12
2019-03-28T04:50:25.351Z,102719.06
2019-03-28T04:52:26.711Z,102710.80
2019-03-28T04:54:28.127Z,102712.28
2019-03-28T04:56:29.476Z,102710.17
2019-03-28T04:58:43.454Z,102717.39
2019-03-28T05:00:34.147Z,102715.27
2019-03-28T05:02:35.523Z,102717.03
2019-03-28T05:04:36.935Z,102721.52
2019-03-28T05:06:38.301Z,102721.36
2019-03-28T05:08:39.698Z,102722.99
2019-03-28T05:10:41.598Z,102725.95
2019-03-28T05:12:43.309Z,102728.73
2019-03-28T05:14:44.680Z,102725.95
2019-03-28T05:16:46.130Z,102725.27
2019-03-28T05:18:47.525Z,102731.50
2019-03-28T05:20:48.917Z,102724.44
2019-03-28T05:22:50.263Z,102731.47
2019-03-28T05:24:51.666Z,102736.67
2019-03-28T05:26:53.072Z,102738.33
2019-03-28T05:28:57.773Z,102738.52
2019-03-28T05:30:57.740Z,102733.09
2019-03-28T05:32:59.091Z,102734.93
2019-03-28T05:35:00.686Z,102739.20
2019-03-28T05:37:02.140Z,102745.63
2019-03-28T05:39:05.227Z,102738.73
2019-03-28T05:41:06.589Z,102750.71
2019-03-28T05:43:07.980Z,102749.53
2019-03-28T05:45:09.979Z,102753.01
2019-03-28T05:47:11.381Z,102751.86
2019-03-28T05:49:12.782Z,102749.84
2019-03-28T05:51:14.349Z,102751.31
2019-03-28T05:53:15.738Z,102753.83
2019-03-28T05:55:17.092Z,102758.05
2019-03-28T05:57:18.501Z,102753.09
2019-03-28T05:59:23.079Z,102764.61
2019-03-28T06:01:24.431Z,102766.72
2019-03-28T06:03:25.904Z,102762.54
2019-03-28T06:05:27.292Z,102761.96
2019-03-28T06:07:28.649Z,102765.02
2019-03-28T06:09:30.038Z,102768.28
2019-03-28T06:11:31.636Z,102764.01
2019-03-28T06:13:33.134Z,102768.61
2019-03-28T06:15:34.498Z,102770.50
2019-03-28T06:17:35.883Z,102782.84
2019-03-28T06:19:38.274Z,102786.64
2019-03-28T06:21:39.904Z,102787.81
2019-03-28T06:23:41.329Z,102794.33
2019-03-28T06:25:42.715Z,102788.12
2019-03-28T06:27:44.089Z,102783.30
2019-03-28T06:29:45.562Z,102792.58
2019-03-28T06:31:55.198Z,102795.45
2019-03-28T06:33:50.910Z,102796.11
2019-03-28T06:35:52.284Z,102791.02
2019-03-28T06:37:53.665Z,102796.82
2019-03-28T06:39:55.014Z,102798.08
2019-03-28T06:41:56.399Z,102804.62
2019-03-28T06:43:57.746Z,102812.01
2019-03-28T06:45:59.130Z,102809.52
2019-03-28T06:48:00.474Z,102806.61
2019-03-28T06:50:03.951Z,102810.45
2019-03-28T06:52:05.310Z,102811.60
2019-03-28T06:54:06.692Z,102811.60
2019-03-28T06:56:08.072Z,102811.95
2019-03-28T06:58:09.434Z,102812.31
2019-03-28T07:00:11.528Z,102820.50
2019-03-28T07:02:12.889Z,102816.55
2019-03-28T07:04:14.238Z,102823.15
2019-03-28T07:06:15.618Z,102822.47
2019-03-28T07:08:17.232Z,102825.23
2019-03-28T07:10:18.592Z,102830.18
2019-03-28T07:12:19.949Z,102830.64
2019-03-28T07:14:21.360Z,102829.00
2019-03-28T07:16:22.730Z,102825.86
2019-03-28T07:18:24.288Z,102833.08
2019-03-28T07:20:26.363Z,102831.44
2019-03-28T07:22:27.993Z,102834.70
2019-03-28T07:24:29.552Z,102835.19
2019-03-28T07:26:30.904Z,102833.58
2019-03-28T07:28:32.312Z,102840.20
2019-03-28T07:30:33.704Z,102843.00
2019-03-28T07:32:35.103Z,102844.50
2019-03-28T07:34:36.461Z,102850.63
2019-03-28T07:36:37.827Z,102849.78
2019-03-28T07:38:39.238Z,102851.20
2019-03-28T07:40:40.601Z,102850.97
2019-03-28T07:42:41.973Z,102848.20
2019-03-28T07:44:43.350Z,102848.88
2019-03-28T07:46:47.487Z,102847.90
2019-03-28T07:48:48.123Z,102847.67
2019-03-28T07:50:49.510Z,102842.17
2019-03-28T07:52:50.861Z,102853.65
2019-03-28T07:54:52.257Z,102851.84
2019-03-28T07:56:53.633Z,102850.50
2019-03-28T07:58:55.011Z,102848.28
2019-03-28T08:00:56.354Z,102857.50
2019-03-28T08:02:58.526Z,102854.03
2019-03-28T08:05:01.449Z,102859.53
2019-03-28T08:07:03.342Z,102858.47
2019-03-28T08:09:08.296Z,102854.95
2019-03-28T08:11:09.665Z,102859.37
2019-03-28T08:13:11.066Z,102858.30
2019-03-28T08:15:12.953Z,102858.84
2019-03-28T08:17:14.323Z,102857.23
2019-03-28T08:19:15.818Z,102868.79
2019-03-28T08:21:17.177Z,102866.30
2019-03-28T08:23:18.540Z,102871.49
2019-03-28T08:25:19.959Z,102872.40
2019-03-28T08:27:21.314Z,102867.94
2019-03-28T08:29:22.697Z,102862.78
2019-03-28T08:31:24.081Z,102860.98
2019-03-28T08:33:26.481Z,102861.11
2019-03-28T08:35:29.661Z,102864.89
2019-03-28T08:37:31.138Z,102864.04
2019-03-28T08:39:32.781Z,102871.30
2019-03-28T08:41:34.187Z,102874.14
2019-03-28T08:43:36.079Z,102878.48
2019-03-28T08:45:37.549Z,102877.66
2019-03-28T08:47:38.949Z,102878.13
2019-03-28T08:49:40.327Z,102881.61
2019-03-28T08:51:41.701Z,102883.09
2019-03-28T08:53:43.089Z,102881.61
2019-03-28T08:55:44.459Z,102875.78
2019-03-28T08:57:45.839Z,102881.17
2019-03-28T08:59:47.194Z,102888.23
2019-03-28T09:01:48.614Z,102898.94
2019-03-28T09:03:49.988Z,102894.91
2019-03-28T09:05:51.438Z,102896.11
2019-03-28T09:07:52.881Z,102896.71
2019-03-28T09:09:54.248Z,102889.93
2019-03-28T09:11:55.612Z,102891.97
2019-03-28T09:13:57.011Z,102884.73
2019-03-28T09:15:58.376Z,102886.55
2019-03-28T09:18:00.404Z,102887.96
2019-03-28T09:20:07.705Z,102886.19
2019-03-28T09:22:09.093Z,102878.81
2019-03-28T09:24:10.451Z,102877.27
2019-03-28T09:26:11.812Z,102877.97
2019-03-28T09:28:13.318Z,102876.72
2019-03-28T09:30:26.372Z,102867.64
2019-03-28T09:32:28.331Z,102874.34
2019-03-28T09:34:29.737Z,102879.28
2019-03-28T09:36:31.110Z,102883.81
2019-03-28T09:38:32.477Z,102881.09
2019-03-28T09:40:33.884Z,102883.16
2019-03-28T09:42:35.243Z,102885.27
2019-03-28T09:44:36.606Z,102885.95
2019-03-28T09:46:38.016Z,102880.03
2019-03-28T09:48:39.464Z,102888.16
2019-03-28T09:50:40.826Z,102877.42
2019-03-28T09:52:42.221Z,102878.06
2019-03-28T09:54:43.591Z,102878.17
2019-03-28T09:56:44.944Z,102881.30
2019-03-28T09:58:46.331Z,102883.20
2019-03-28T10:01:01.667Z,102880.24
2019-03-28T10:02:51.026Z,102880.91
2019-03-28T10:04:52.378Z,102876.59
2019-03-28T10:06:53.762Z,102886.88
2019-03-28T10:08:55.192Z,102882.66
2019-03-28T10:10:56.655Z,102883.22
2019-03-28T10:12:58.082Z,102884.67
2019-03-28T10:14:59.446Z,102890.19
2019-03-28T10:17:01.454Z,102891.04
2019-03-28T10:19:03.156Z,102891.25
2019-03-28T10:21:04.605Z,102886.23
2019-03-28T10:23:06.078Z,102888.76
2019-03-28T10:25:07.929Z,102894.39
2019-03-28T10:27:09.309Z,102886.62
2019-03-28T10:29:10.668Z,102895.09
2019-03-28T10:31:16.603Z,102889.42
2019-03-28T10:33:16.232Z,102887.41
2019-03-28T10:35:25.880Z,102889.52
2019-03-28T10:37:27.236Z,102891.97
2019-03-28T10:39:28.654Z,102896.67
2019-03-28T10:41:30.005Z,102899.63
2019-03-28T10:43:31.411Z,102899.91
2019-03-28T10:45:33.701Z,102896.60
2019-03-28T10:47:35.335Z,102898.31
2019-03-28T10:49:36.736Z,102900.25
2019-03-28T10:51:38.109Z,102897.83
2019-03-28T10:53:39.451Z,102889.93
2019-03-28T10:55:40.860Z,102891.87
2019-03-28T10:57:42.217Z,102895.45
2019-03-28T10:59:43.564Z,102898.04
2019-03-28T11:01:50.280Z,102897.50
2019-03-28T11:03:48.429Z,102895.81
2019-03-28T11:05:49.813Z,102892.81
2019-03-28T11:07:51.223Z,102899.35
2019-03-28T11:09:52.600Z,102900.33
2019-03-28T11:11:53.950Z,102902.81
2019-03-28T11:13:55.329Z,102903.02
2019-03-28T11:15:56.684Z,102904.46
2019-03-28T11:17:58.054Z,102905.74
2019-03-28T11:19:59.442Z,102905.66
2019-03-28T11:22:00.850Z,102903.14
2019-03-28T11:24:02.213Z,102905.13
2019-03-28T11:26:03.619Z,102895.81
2019-03-28T11:28:04.984Z,102903.75
2019-03-28T11:30:07.253Z,102905.91
2019-03-28T11:32:08.742Z,102902.44
2019-03-28T11:34:10.307Z,102904.52
2019-03-28T11:36:11.666Z,102904.97
2019-03-28T11:38:13.044Z,102909.66
2019-03-28T11:40:14.730Z,102907.36
2019-03-28T11:42:16.107Z,102915.61
2019-03-28T11:44:17.782Z,102909.88
2019-03-28T11:46:19.130Z,102909.15
2019-03-28T11:48:20.500Z,102908.28
2019-03-28T11:50:21.885Z,102915.30
2019-03-28T11:52:23.272Z,102921.10
2019-03-28T11:54:24.669Z,102918.11
2019-03-28T11:56:26.029Z,102915.14
2019-03-28T11:58:27.388Z,102919.83
2019-03-28T12:00:29.515Z,102920.23
2019-03-28T12:02:31.159Z,102915.31
2019-03-28T12:04:32.534Z,102913.69
2019-03-28T12:06:33.937Z,102915.73
2019-03-28T12:08:35.345Z,102910.95
2019-03-28T12:10:36.723Z,102911.78
2019-03-28T12:12:38.110Z,102912.80
2019-03-28T12:14:39.507Z,102907.66
2019-03-28T12:16:40.847Z,102907.58
2019-03-28T12:18:42.364Z,102910.31
2019-03-28T12:20:45.550Z,102909.66
2019-03-28T12:22:47.040Z,102910.53
2019-03-28T12:24:48.400Z,102915.14
2019-03-28T12:26:49.766Z,102917.17
2019-03-28T12:28:51.153Z,102918.05
2019-03-28T12:30:52.528Z,102913.24
2019-03-28T12:32:53.954Z,102915.00
2019-03-28T12:34:55.366Z,102917.91
2019-03-28T12:36:56.711Z,102914.61
2019-03-28T12:38:58.477Z,102914.95
2019-03-28T12:40:59.873Z,102920.23
2019-03-28T12:43:01.231Z,102919.52
2019-03-28T12:45:12.208Z,102919.64
2019-03-28T12:47:13.660Z,102927.10
2019-03-28T12:49:15.064Z,102925.13
2019-03-28T12:51:16.425Z,102922.84
2019-03-28T12:53:17.841Z,102923.34
2019-03-28T12:55:19.201Z,102926.38
2019-03-28T12:57:20.652Z,102928.81
2019-03-28T12:59:22.043Z,102929.72
2019-03-28T13:01:24.496Z,102928.05
2019-03-28T13:03:26.095Z,102931.34
2019-03-28T13:05:27.446Z,102928.70
2019-03-28T13:07:28.855Z,102927.76
2019-03-28T13:09:30.278Z,102932.82
2019-03-28T13:11:31.617Z,102933.48
2019-03-28T13:13:32.991Z,102928.33
2019-03-28T13:15:34.378Z,102934.13
2019-03-28T13:17:35.742Z,102934.00
2019-03-28T13:19:37.113Z,102935.20
2019-03-28T13:21:38.505Z,102940.34
2019-03-28T13:23:39.905Z,102946.47
2019-03-28T13:25:41.280Z,102942.08
2019-03-28T13:27:42.640Z,102942.28
2019-03-28T13:29:44.023Z,102944.52
2019-03-28T13:31:45.376Z,102942.64
2019-03-28T13:33:46.772Z,102937.33
2019-03-28T13:35:48.144Z,102945.20
2019-03-28T13:37:49.492Z,102949.36
2019-03-28T13:39:50.883Z,102950.55
2019-03-28T13:41:52.252Z,102945.97
2019-03-28T13:43:53.619Z,102953.35
2019-03-28T13:45:54.999Z,102945.54
2019-03-28T13:47:56.368Z,102944.30
2019-03-28T13:49:57.757Z,102942.13
2019-03-28T13:51:59.341Z,102942.56
2019-03-28T13:54:00.702Z,102940.50
2019-03-28T13:56:02.038Z,102938.86
2019-03-28T13:58:03.445Z,102941.09
2019-03-28T14:00:06.642Z,102944.84
2019-03-28T14:02:07.996Z,102945.63
2019-03-28T14:04:09.394Z,102944.05
2019-03-28T14:06:10.760Z,102938.22
2019-03-28T14:08:12.356Z,102937.59
2019-03-28T14:10:13.924Z,102938.70
2019-03-28T14:12:15.442Z,102937.27
2019-03-28T14:14:16.813Z,102935.41
2019-03-28T14:16:18.202Z,102932.48
2019-03-28T14:18:19.773Z,102932.69
2019-03-28T14:20:22.480Z,102932.23
2019-03-28T14:22:23.972Z,102931.42
2019-03-28T14:24:25.354Z,102931.14
2019-03-28T14:26:26.700Z,102930.15
2019-03-28T14:28:28.077Z,102929.03
2019-03-28T14:30:29.448Z,102933.81
2019-03-28T14:32:33.088Z,102932.70
2019-03-28T14:34:34.105Z,102930.52
2019-03-28T14:36:35.449Z,102930.44
2019-03-28T14:38:37.626Z,102929.28
2019-03-28T14:40:39.207Z,102927.67
2019-03-28T14:42:40.946Z,102930.56
2019-03-28T14:44:42.563Z,102937.80
2019-03-28T14:46:43.920Z,102933.84
2019-03-28T14:48:45.426Z,102934.92
2019-03-28T14:50:46.964Z,102938.59
2019-03-28T14:52:48.348Z,102939.81
2019-03-28T14:54:49.723Z,102939.45
2019-03-28T14:56:51.177Z,102943.19
2019-03-28T14:58:55.774Z,102943.11
2019-03-28T15:00:57.190Z,102942.20
2019-03-28T15:02:58.578Z,102947.06
2019-03-28T15:04:59.962Z,102943.63
2019-03-28T15:07:01.307Z,102947.84
2019-03-28T15:09:07.228Z,102950.56
2019-03-28T15:11:08.573Z,102947.34
2019-03-28T15:13:09.946Z,102942.91
2019-03-28T15:15:11.539Z,102940.80
2019-03-28T15:17:12.929Z,102941.13
2019-03-28T15:19:14.296Z,102942.86
2019-03-28T15:21:15.668Z,102940.59
2019-03-28T15:23:17.021Z,102937.80
2019-03-28T15:25:18.371Z,102938.49
2019-03-28T15:27:19.743Z,102941.92
2019-03-28T15:29:24.011Z,102937.02
2019-03-28T15:31:25.489Z,102935.33
2019-03-28T15:33:38.831Z,102925.81
2019-03-28T15:35:30.283Z,102930.97
2019-03-28T15:37:31.649Z,102930.19
2019-03-28T15:39:33.048Z,102921.58
2019-03-28T15:41:35.326Z,102925.08
2019-03-28T15:43:36.662Z,102923.92
2019-03-28T15:45:38.004Z,102925.45
2019-03-28T15:47:39.383Z,102920.09
2019-03-28T15:49:40.732Z,102923.89
2019-03-28T15:51:42.066Z,102921.49
2019-03-28T15:53:43.439Z,102921.79
2019-03-28T15:55:44.796Z,102920.92
2019-03-28T15:57:46.650Z,102923.13
2019-03-28T15:59:48.086Z,102923.14
2019-03-28T16:01:49.496Z,102927.17
2019-03-28T16:03:53.037Z,102927.87
2019-03-28T16:05:58.426Z,102931.95
2019-03-28T16:07:59.312Z,102935.41
2019-03-28T16:10:00.686Z,102938.42
2019-03-28T16:12:03.090Z,102938.09
2019-03-28T16:14:04.707Z,102937.59
2019-03-28T16:16:06.053Z,102936.08
2019-03-28T16:18:07.429Z,102939.40
2019-03-28T16:20:09.368Z,102940.36
2019-03-28T16:22:11.642Z,102945.66
2019-03-28T16:24:13.318Z,102945.28
2019-03-28T16:26:14.757Z,102942.49
2019-03-28T16:28:16.125Z,102944.58
2019-03-28T16:30:23.196Z,102949.64
2019-03-28T16:32:24.544Z,102946.10
2019-03-28T16:34:25.962Z,102948.30
2019-03-28T16:36:27.336Z,102950.72
2019-03-28T16:38:28.681Z,102955.46
2019-03-28T16:40:30.687Z,102953.69
2019-03-28T16:42:32.966Z,102951.91
2019-03-28T16:44:34.324Z,102953.46
2019-03-28T16:46:35.696Z,102953.59
2019-03-28T16:48:37.062Z,102956.26
2019-03-28T16:50:38.436Z,102954.98
2019-03-28T16:52:39.821Z,102959.02
2019-03-28T16:54:41.155Z,102961.95
2019-03-28T16:56:42.524Z,102955.81
2019-03-28T16:58:43.906Z,102956.22
2019-03-28T17:00:45.263Z,102957.75
2019-03-28T17:02:46.660Z,102954.13
2019-03-28T17:04:48.005Z,102958.37
2019-03-28T17:06:50.080Z,102958.54
2019-03-28T17:08:51.547Z,102961.83
2019-03-28T17:10:53.234Z,102963.01
2019-03-28T17:12:54.589Z,102961.94
2019-03-28T17:14:55.937Z,102963.92
2019-03-28T17:16:57.313Z,102960.09
2019-03-28T17:18:58.664Z,102959.30
2019-03-28T17:21:00.008Z,102962.94
2019-03-28T17:23:01.821Z,102968.33
2019-03-28T17:25:05.245Z,102969.63
2019-03-28T17:27:06.595Z,102973.30
2019-03-28T17:29:07.973Z,102971.56
2019-03-28T17:31:09.331Z,102974.95
2019-03-28T17:33:10.665Z,102972.52
2019-03-28T17:35:13.029Z,102974.59
2019-03-28T17:37:14.491Z,102971.40
2019-03-28T17:39:15.841Z,102976.67
2019-03-28T17:41:17.325Z,102979.99
2019-03-28T17:43:18.671Z,102979.99
2019-03-28T17:45:20.045Z,102977.70
2019-03-28T17:47:21.445Z,102984.41
2019-03-28T17:49:22.832Z,102973.76
2019-03-28T17:51:24.187Z,102976.77
2019-03-28T17:53:25.574Z,102984.45
2019-03-28T17:55:27.024Z,102986.31
2019-03-28T17:57:28.368Z,102988.95
2019-03-28T17:59:29.734Z,102992.34
2019-03-28T18:01:31.109Z,102991.28
2019-03-28T18:03:32.452Z,102995.07
2019-03-28T18:05:33.799Z,102998.36
2019-03-28T18:07:35.666Z,103006.85
2019-03-28T18:09:37.830Z,102996.38
2019-03-28T18:11:39.387Z,102997.64
2019-03-28T18:13:40.782Z,103003.06
2019-03-28T18:15:42.231Z,103010.50
2019-03-28T18:17:43.579Z,103011.43
2019-03-28T18:19:44.965Z,103017.03
2019-03-28T18:21:46.322Z,103011.72
2019-03-28T18:23:47.729Z,103007.48
2019-03-28T18:25:49.095Z,103005.61
2019-03-28T18:27:50.473Z,103002.54
2019-03-28T18:29:51.865Z,103008.70
2019-03-28T18:31:53.261Z,103008.77
2019-03-28T18:33:54.632Z,103018.56
2019-03-28T18:35:55.980Z,103020.92
2019-03-28T18:37:57.376Z,103027.58
2019-03-28T18:39:58.715Z,103014.59
2019-03-28T18:42:00.071Z,103015.30
2019-03-28T18:44:01.724Z,103011.84
2019-03-28T18:46:03.113Z,103015.94
2019-03-28T18:48:04.559Z,103021.27
2019-03-28T18:50:07.052Z,103015.44
2019-03-28T18:52:08.433Z,103020.53
2019-03-28T18:54:09.840Z,103014.22
2019-03-28T18:56:11.189Z,103019.02
2019-03-28T18:58:12.599Z,103028.55
2019-03-28T19:00:14.848Z,103024.98
2019-03-28T19:02:16.192Z,103028.83
2019-03-28T19:04:17.589Z,103023.64
2019-03-28T19:06:18.968Z,103025.84
2019-03-28T19:08:20.310Z,103026.66
2019-03-28T19:10:21.709Z,103030.02
2019-03-28T19:12:23.051Z,103031.19
2019-03-28T19:14:24.397Z,103028.94
2019-03-28T19:16:25.878Z,103030.42
2019-03-28T19:18:27.251Z,103035.55
2019-03-28T19:20:28.589Z,103033.52
2019-03-28T19:22:29.962Z,103037.10
2019-03-28T19:24:31.334Z,103046.48
2019-03-28T19:26:32.718Z,103040.95
2019-03-28T19:28:34.075Z,103045.08
2019-03-28T19:30:35.519Z,103048.42
2019-03-28T19:32:36.894Z,103049.61
2019-03-28T19:34:38.244Z,103054.05
2019-03-28T19:36:39.690Z,103055.30
2019-03-28T19:38:41.201Z,103052.72
2019-03-28T19:40:42.646Z,103053.08
2019-03-28T19:42:44.150Z,103054.42
2019-03-28T19:44:46.062Z,103057.52
2019-03-28T19:46:47.443Z,103059.61
2019-03-28T19:48:49.190Z,103059.72
2019-03-28T19:50:50.670Z,103059.86
2019-03-28T19:52:52.015Z,103059.02
2019-03-28T19:54:53.609Z,103057.80
2019-03-28T19:56:57.350Z,103055.89
2019-03-28T19:58:59.137Z,103055.39
2019-03-28T20:01:00.809Z,103055.89
2019-03-28T20:03:02.762Z,103052.24
2019-03-28T20:05:05.779Z,103054.38
2019-03-28T20:07:20.601Z,103058.70
2019-03-28T20:09:16.054Z,103054.77
2019-03-28T20:11:13.788Z,103062.08
2019-03-28T20:13:15.132Z,103065.42
2019-03-28T20:15:16.873Z,103063.72
2019-03-28T20:17:18.275Z,103067.62
2019-03-28T20:19:19.637Z,103065.09
2019-03-28T20:21:20.980Z,103062.11
2019-03-28T20:23:22.788Z,103065.56
2019-03-28T20:25:24.338Z,103069.09
2019-03-28T20:27:25.677Z,103068.46
2019-03-28T20:29:27.077Z,103068.06
2019-03-28T20:31:28.425Z,103067.37
2019-03-28T20:33:29.765Z,103063.91
2019-03-28T20:35:31.470Z,103065.42
2019-03-28T20:37:32.816Z,103070.20
2019-03-28T20:39:34.155Z,103064.55
2019-03-28T20:41:35.751Z,103070.77
2019-03-28T20:43:37.315Z,103065.15
2019-03-28T20:45:38.645Z,103067.40
2019-03-28T20:47:40.412Z,103068.55
2019-03-28T20:49:41.774Z,103072.85
2019-03-28T20:51:43.174Z,103063.32
2019-03-28T20:53:44.541Z,103065.42
2019-03-28T20:55:46.039Z,103062.90
2019-03-28T20:57:47.386Z,103059.80
2019-03-28T20:59:48.771Z,103062.27
2019-03-28T21:01:50.151Z,103066.05
2019-03-28T21:03:52.049Z,103065.69
2019-03-28T21:05:53.417Z,103066.70
2019-03-28T21:07:54.816Z,103063.81
2019-03-28T21:09:56.214Z,103069.08
2019-03-28T21:11:57.563Z,103064.45
2019-03-28T21:13:58.902Z,103065.53
2019-03-28T21:16:00.352Z,103066.61
2019-03-28T21:18:01.750Z,103069.84
2019-03-28T21:20:25.922Z,103070.53
2019-03-28T21:23:07.078Z,103045.94
2019-03-28T21:25:48.933Z,103031.19
2019-03-28T21:27:50.400Z,103066.82
2019-03-28T21:29:51.769Z,103074.55
2019-03-28T21:31:53.156Z,103071.69
2019-03-28T21:33:55.022Z,103075.52
2019-03-28T21:35:56.510Z,103072.39
2019-03-28T21:37:57.855Z,103068.81
2019-03-28T21:39:59.257Z,103066.05
2019-03-28T21:42:00.728Z,103066.42
2019-03-28T21:44:02.105Z,103066.28
2019-03-28T21:46:03.472Z,103066.56
2019-03-28T21:48:04.828Z,103071.66
2019-03-28T21:50:06.521Z,103066.44
2019-03-28T21:52:07.889Z,103065.75
2019-03-28T21:54:09.338Z,103062.42
2019-03-28T21:56:14.015Z,103062.66
2019-03-28T21:58:13.988Z,103064.92
2019-03-28T22:00:15.744Z,103063.28
2019-03-28T22:02:17.241Z,103060.81
2019-03-28T22:04:18.584Z,103057.28
2019-03-28T22:06:20.230Z,103060.30
2019-03-28T22:08:21.605Z,103065.36
2019-03-28T22:10:22.990Z,103064.50
2019-03-28T22:12:24.342Z,103062.22
2019-03-28T22:14:25.734Z,103058.95
2019-03-28T22:16:27.079Z,103058.27
2019-03-28T22:18:28.427Z,103057.28
2019-03-28T22:20:29.830Z,103056.84
2019-03-28T22:22:31.176Z,103055.72
2019-03-28T22:24:32.664Z,103061.69
2019-03-28T22:26:34.176Z,103060.05
2019-03-28T22:28:37.887Z,103058.46
2019-03-28T22:30:39.011Z,103053.77
2019-03-28T22:32:40.679Z,103052.26
2019-03-28T22:34:42.027Z,103052.84
2019-03-28T22:36:56.235Z,103053.14
2019-03-28T22:38:46.852Z,103053.45
2019-03-28T22:40:48.594Z,103051.78
2019-03-28T22:42:50.017Z,103055.17
2019-03-28T22:44:51.470Z,103051.25
2019-03-28T22:46:52.848Z,103054.94
2019-03-28T22:48:54.237Z,103048.39
2019-03-28T22:50:55.597Z,103049.06
2019-03-28T22:52:56.954Z,103053.65
2019-03-28T22:54:58.316Z,103051.25
2019-03-28T22:56:59.701Z,103052.27
2019-03-28T22:59:01.185Z,103048.64
2019-03-28T23:01:03.520Z,103054.47
2019-03-28T23:03:05.103Z,103055.55
2019-03-28T23:05:07.287Z,103053.59
2019-03-28T23:07:11.219Z,103054.16
2019-03-28T23:09:11.923Z,103051.06